sensor_id;sensor_type;location;lat;lon;timestamp;pressure;altitude;pressure_sealevel;temperature;humidity
79236;BME280;69062;47.460;18.812;2024-03-02T00:00:10;99543.72;;;10.47;75.92
79236;BME280;69062;47.460;18.812;2024-03-02T00:02:16;99543.59;;;10.49;76.07
79236;BME280;69062;47.460;18.812;2024-03-02T00:04:18;99548.88;;;10.49;76.08
79236;BME280;69062;47.460;18.812;2024-03-02T00:06:21;99553.53;;;10.45;76.23
79236;BME280;69062;47.460;18.812;2024-03-02T00:08:25;99542.47;;;10.39;75.94
79236;BME280;69062;47.460;18.812;2024-03-02T00:10:37;99550.03;;;10.45;76.58
79236;BME280;69062;47.460;18.812;2024-03-02T00:12:47;99546.19;;;10.51;75.76
79236;BME280;69062;47.460;18.812;2024-03-02T00:14:50;99545.03;;;10.55;75.74
79236;BME280;69062;47.460;18.812;2024-03-02T00:16:55;99536.47;;;10.51;75.71
79236;BME280;69062;47.460;18.812;2024-03-02T00:19:02;99534.19;;;10.45;75.82
79236;BME280;69062;47.460;18.812;2024-03-02T00:21:06;99524.09;;;10.37;76.38
79236;BME280;69062;47.460;18.812;2024-03-02T00:23:17;99522.38;;;10.36;76.44
79236;BME280;69062;47.460;18.812;2024-03-02T00:25:21;99521.81;;;10.31;76.29
79236;BME280;69062;47.460;18.812;2024-03-02T00:27:24;99519.31;;;10.28;76.89
79236;BME280;69062;47.460;18.812;2024-03-02T00:29:27;99521.53;;;10.20;76.97
79236;BME280;69062;47.460;18.812;2024-03-02T00:31:31;99529.53;;;10.18;77.26
79236;BME280;69062;47.460;18.812;2024-03-02T00:33:46;99530.59;;;10.16;76.69
79236;BME280;69062;47.460;18.812;2024-03-02T00:35:50;99526.16;;;10.16;76.77
79236;BME280;69062;47.460;18.812;2024-03-02T00:37:54;99525.47;;;10.13;76.50
79236;BME280;69062;47.460;18.812;2024-03-02T00:39:57;99530.09;;;10.09;76.24
79236;BME280;69062;47.460;18.812;2024-03-02T00:42:00;99527.44;;;10.09;76.45
79236;BME280;69062;47.460;18.812;2024-03-02T00:44:05;99534.75;;;10.04;77.05
79236;BME280;69062;47.460;18.812;2024-03-02T00:46:16;99539.28;;;10.02;76.99
79236;BME280;69062;47.460;18.812;2024-03-02T00:48:20;99538.34;;;10.03;76.61
79236;BME280;69062;47.460;18.812;2024-03-02T00:50:23;99534.94;;;10.01;77.10
79236;BME280;69062;47.460;18.812;2024-03-02T00:52:32;99536.75;;;10.01;77.02
79236;BME280;69062;47.460;18.812;2024-03-02T00:54:35;99539.63;;;9.96;77.23
79236;BME280;69062;47.460;18.812;2024-03-02T00:56:38;99543.06;;;9.82;77.39
79236;BME280;69062;47.460;18.812;2024-03-02T00:58:41;99551.06;;;9.81;77.19
79236;BME280;69062;47.460;18.812;2024-03-02T01:00:44;99540.06;;;9.88;77.25
79236;BME280;69062;47.460;18.812;2024-03-02T01:02:46;99546.44;;;9.84;77.55
79236;BME280;69062;47.460;18.812;2024-03-02T01:04:49;99541.34;;;9.81;76.96
79236;BME280;69062;47.460;18.812;2024-03-02T01:06:52;99546.38;;;9.86;77.39
79236;BME280;69062;47.460;18.812;2024-03-02T01:08:55;99547.13;;;9.88;77.74
79236;BME280;69062;47.460;18.812;2024-03-02T01:10:57;99538.28;;;9.89;76.71
79236;BME280;69062;47.460;18.812;2024-03-02T01:13:00;99532.91;;;9.90;76.80
79236;BME280;69062;47.460;18.812;2024-03-02T01:15:04;99540.66;;;9.93;77.43
79236;BME280;69062;47.460;18.812;2024-03-02T01:17:10;99536.84;;;9.83;77.22
79236;BME280;69062;47.460;18.812;2024-03-02T01:19:13;99534.97;;;9.85;77.90
79236;BME280;69062;47.460;18.812;2024-03-02T01:21:15;99538.53;;;9.84;77.40
79236;BME280;69062;47.460;18.812;2024-03-02T01:23:19;99537.78;;;9.82;77.53
79236;BME280;69062;47.460;18.812;2024-03-02T01:25:22;99528.06;;;9.83;76.49
79236;BME280;69062;47.460;18.812;2024-03-02T01:27:25;99527.63;;;9.90;76.37
79236;BME280;69062;47.460;18.812;2024-03-02T01:29:28;99529.84;;;9.98;75.74
79236;BME280;69062;47.460;18.812;2024-03-02T01:31:31;99529.84;;;9.98;76.09
79236;BME280;69062;47.460;18.812;2024-03-02T01:33:34;99526.88;;;9.88;75.71
79236;BME280;69062;47.460;18.812;2024-03-02T01:35:39;99527.81;;;9.87;76.17
79236;BME280;69062;47.460;18.812;2024-03-02T01:37:42;99518.22;;;9.86;74.97
79236;BME280;69062;47.460;18.812;2024-03-02T01:39:45;99527.06;;;9.85;75.19
79236;BME280;69062;47.460;18.812;2024-03-02T01:41:47;99532.19;;;9.73;74.82
79236;BME280;69062;47.460;18.812;2024-03-02T01:43:50;99527.91;;;9.86;74.43
79236;BME280;69062;47.460;18.812;2024-03-02T01:45:53;99525.72;;;9.78;74.49
79236;BME280;69062;47.460;18.812;2024-03-02T01:47:56;99516.44;;;9.71;74.83
79236;BME280;69062;47.460;18.812;2024-03-02T01:49:59;99514.56;;;9.73;74.42
79236;BME280;69062;47.460;18.812;2024-03-02T01:52:02;99511.25;;;9.70;74.83
79236;BME280;69062;47.460;18.812;2024-03-02T01:54:05;99504.97;;;9.72;73.78
79236;BME280;69062;47.460;18.812;2024-03-02T01:56:08;99503.78;;;9.78;74.21
79236;BME280;69062;47.460;18.812;2024-03-02T01:58:11;99512.78;;;9.74;74.03
79236;BME280;69062;47.460;18.812;2024-03-02T02:00:16;99508.53;;;9.71;74.27
79236;BME280;69062;47.460;18.812;2024-03-02T02:02:19;99508.44;;;9.73;74.29
79236;BME280;69062;47.460;18.812;2024-03-02T02:04:22;99513.53;;;9.76;74.06
79236;BME280;69062;47.460;18.812;2024-03-02T02:06:29;99522.28;;;9.76;74.02
79236;BME280;69062;47.460;18.812;2024-03-02T02:08:32;99520.59;;;9.75;74.72
79236;BME280;69062;47.460;18.812;2024-03-02T02:10:36;99534.72;;;9.74;74.86
79236;BME280;69062;47.460;18.812;2024-03-02T02:12:39;99534.47;;;9.79;73.47
79236;BME280;69062;47.460;18.812;2024-03-02T02:14:49;99545.03;;;9.79;74.19
79236;BME280;69062;47.460;18.812;2024-03-02T02:16:55;99552.09;;;9.78;74.38
79236;BME280;69062;47.460;18.812;2024-03-02T02:18:58;99549.50;;;9.77;74.14
79236;BME280;69062;47.460;18.812;2024-03-02T02:21:02;99551.38;;;9.75;75.32
79236;BME280;69062;47.460;18.812;2024-03-02T02:23:04;99552.25;;;9.75;75.57
79236;BME280;69062;47.460;18.812;2024-03-02T02:25:12;99562.03;;;9.73;75.35
79236;BME280;69062;47.460;18.812;2024-03-02T02:27:15;99554.13;;;9.73;75.52
79236;BME280;69062;47.460;18.812;2024-03-02T02:29:18;99555.31;;;9.67;76.15
79236;BME280;69062;47.460;18.812;2024-03-02T02:31:20;99558.63;;;9.71;75.42
79236;BME280;69062;47.460;18.812;2024-03-02T02:33:23;99562.03;;;9.73;75.66
79236;BME280;69062;47.460;18.812;2024-03-02T02:35:26;99561.28;;;9.71;76.48
79236;BME280;69062;47.460;18.812;2024-03-02T02:37:29;99557.09;;;9.67;75.48
79236;BME280;69062;47.460;18.812;2024-03-02T02:39:32;99563.97;;;9.70;75.81
79236;BME280;69062;47.460;18.812;2024-03-02T02:41:35;99558.38;;;9.60;74.96
79236;BME280;69062;47.460;18.812;2024-03-02T02:43:38;99565.00;;;9.67;75.98
79236;BME280;69062;47.460;18.812;2024-03-02T02:45:42;99562.28;;;9.68;75.37
79236;BME280;69062;47.460;18.812;2024-03-02T02:47:45;99563.31;;;9.66;75.31
79236;BME280;69062;47.460;18.812;2024-03-02T02:49:47;99554.63;;;9.64;75.41
79236;BME280;69062;47.460;18.812;2024-03-02T02:51:50;99546.72;;;9.64;75.41
79236;BME280;69062;47.460;18.812;2024-03-02T02:53:53;99548.91;;;9.56;75.80
79236;BME280;69062;47.460;18.812;2024-03-02T02:55:56;99545.44;;;9.55;76.12
79236;BME280;69062;47.460;18.812;2024-03-02T02:57:59;99549.84;;;9.55;75.51
79236;BME280;69062;47.460;18.812;2024-03-02T03:00:03;99534.81;;;9.57;76.00
79236;BME280;69062;47.460;18.812;2024-03-02T03:02:07;99539.41;;;9.53;75.53
79236;BME280;69062;47.460;18.812;2024-03-02T03:04:10;99542.88;;;9.54;75.58
79236;BME280;69062;47.460;18.812;2024-03-02T03:06:13;99535.06;;;9.52;75.79
79236;BME280;69062;47.460;18.812;2024-03-02T03:08:16;99537.53;;;9.55;75.87
79236;BME280;69062;47.460;18.812;2024-03-02T03:10:19;99544.00;;;9.50;76.03
79236;BME280;69062;47.460;18.812;2024-03-02T03:12:24;99540.44;;;9.51;76.50
79236;BME280;69062;47.460;18.812;2024-03-02T03:14:27;99550.78;;;9.54;75.41
79236;BME280;69062;47.460;18.812;2024-03-02T03:16:30;99555.97;;;9.55;74.57
79236;BME280;69062;47.460;18.812;2024-03-02T03:18:33;99551.72;;;9.53;75.22
79236;BME280;69062;47.460;18.812;2024-03-02T03:20:36;99554.78;;;9.45;74.78
79236;BME280;69062;47.460;18.812;2024-03-02T03:22:39;99556.75;;;9.57;75.33
79236;BME280;69062;47.460;18.812;2024-03-02T03:24:42;99554.19;;;9.56;75.42
79236;BME280;69062;47.460;18.812;2024-03-02T03:26:44;99556.66;;;9.59;75.28
79236;BME280;69062;47.460;18.812;2024-03-02T03:28:47;99553.69;;;9.49;74.73
79236;BME280;69062;47.460;18.812;2024-03-02T03:30:50;99548.84;;;9.57;74.66
79236;BME280;69062;47.460;18.812;2024-03-02T03:32:53;99554.13;;;9.57;75.27
79236;BME280;69062;47.460;18.812;2024-03-02T03:34:56;99555.97;;;9.55;74.00
79236;BME280;69062;47.460;18.812;2024-03-02T03:36:59;99547.22;;;9.55;75.00
79236;BME280;69062;47.460;18.812;2024-03-02T03:39:02;99549.84;;;9.55;75.26
79236;BME280;69062;47.460;18.812;2024-03-02T03:41:05;99562.97;;;9.56;74.30
79236;BME280;69062;47.460;18.812;2024-03-02T03:43:08;99553.44;;;9.54;74.95
79236;BME280;69062;47.460;18.812;2024-03-02T03:45:11;99557.53;;;9.59;74.56
79236;BME280;69062;47.460;18.812;2024-03-02T03:47:14;99558.88;;;9.51;74.24
79236;BME280;69062;47.460;18.812;2024-03-02T03:49:17;99549.19;;;9.51;75.19
79236;BME280;69062;47.460;18.812;2024-03-02T03:51:20;99554.59;;;9.48;75.49
79236;BME280;69062;47.460;18.812;2024-03-02T03:53:22;99553.69;;;9.49;75.82
79236;BME280;69062;47.460;18.812;2024-03-02T03:55:25;99547.63;;;9.47;76.38
79236;BME280;69062;47.460;18.812;2024-03-02T03:57:28;99552.16;;;9.45;76.55
79236;BME280;69062;47.460;18.812;2024-03-02T03:59:31;99564.72;;;9.40;76.99
79236;BME280;69062;47.460;18.812;2024-03-02T04:01:33;99559.44;;;9.40;77.10
79236;BME280;69062;47.460;18.812;2024-03-02T04:03:38;99564.91;;;9.37;77.18
79236;BME280;69062;47.460;18.812;2024-03-02T04:05:41;99569.22;;;9.22;78.23
79236;BME280;69062;47.460;18.812;2024-03-02T04:07:43;99575.09;;;9.27;78.69
79236;BME280;69062;47.460;18.812;2024-03-02T04:09:46;99571.59;;;9.27;78.57
79236;BME280;69062;47.460;18.812;2024-03-02T04:11:49;99567.53;;;9.21;80.05
79236;BME280;69062;47.460;18.812;2024-03-02T04:13:52;99575.41;;;9.21;79.43
79236;BME280;69062;47.460;18.812;2024-03-02T04:15:58;99573.78;;;9.19;80.47
79236;BME280;69062;47.460;18.812;2024-03-02T04:18:01;99580.06;;;9.16;80.24
79236;BME280;69062;47.460;18.812;2024-03-02T04:20:04;99575.56;;;9.18;80.18
79236;BME280;69062;47.460;18.812;2024-03-02T04:22:07;99578.69;;;9.09;80.13
79236;BME280;69062;47.460;18.812;2024-03-02T04:24:22;99587.53;;;9.08;80.24
79236;BME280;69062;47.460;18.812;2024-03-02T04:26:25;99582.09;;;9.11;80.66
79236;BME280;69062;47.460;18.812;2024-03-02T04:28:28;99579.72;;;9.06;80.01
79236;BME280;69062;47.460;18.812;2024-03-02T04:30:31;99585.75;;;9.08;80.78
79236;BME280;69062;47.460;18.812;2024-03-02T04:32:34;99583.44;;;9.02;80.73
79236;BME280;69062;47.460;18.812;2024-03-02T04:34:38;99585.00;;;9.06;80.50
79236;BME280;69062;47.460;18.812;2024-03-02T04:36:41;99582.59;;;9.02;81.06
79236;BME280;69062;47.460;18.812;2024-03-02T04:38:44;99588.03;;;8.99;80.80
79236;BME280;69062;47.460;18.812;2024-03-02T04:40:47;99588.03;;;8.99;80.96
79236;BME280;69062;47.460;18.812;2024-03-02T04:42:49;99585.63;;;8.94;81.10
79236;BME280;69062;47.460;18.812;2024-03-02T04:44:52;99582.50;;;9.03;80.61
79236;BME280;69062;47.460;18.812;2024-03-02T04:46:55;99590.81;;;8.96;81.44
79236;BME280;69062;47.460;18.812;2024-03-02T04:48:58;99594.13;;;8.99;81.23
79236;BME280;69062;47.460;18.812;2024-03-02T04:51:01;99585.44;;;8.97;80.75
79236;BME280;69062;47.460;18.812;2024-03-02T04:53:03;99597.63;;;9.00;80.83
79236;BME280;69062;47.460;18.812;2024-03-02T04:55:06;99597.94;;;8.94;81.44
79236;BME280;69062;47.460;18.812;2024-03-02T04:57:12;99598.25;;;8.88;81.49
79236;BME280;69062;47.460;18.812;2024-03-02T04:59:18;99595.00;;;8.82;81.56
79236;BME280;69062;47.460;18.812;2024-03-02T05:01:21;99601.06;;;8.84;81.86
79236;BME280;69062;47.460;18.812;2024-03-02T05:03:26;99598.56;;;8.81;82.46
79236;BME280;69062;47.460;18.812;2024-03-02T05:05:29;99595.34;;;8.76;82.20
79236;BME280;69062;47.460;18.812;2024-03-02T05:07:32;99597.97;;;8.76;82.93
79236;BME280;69062;47.460;18.812;2024-03-02T05:09:34;99598.56;;;8.81;82.55
79236;BME280;69062;47.460;18.812;2024-03-02T05:11:37;99599.03;;;8.72;83.04
79236;BME280;69062;47.460;18.812;2024-03-02T05:13:40;99600.25;;;8.82;83.19
79236;BME280;69062;47.460;18.812;2024-03-02T05:15:43;99594.41;;;8.77;83.11
79236;BME280;69062;47.460;18.812;2024-03-02T05:17:46;99592.94;;;8.72;83.84
79236;BME280;69062;47.460;18.812;2024-03-02T05:19:48;99595.06;;;8.81;83.39
79236;BME280;69062;47.460;18.812;2024-03-02T05:21:52;99605.69;;;8.79;84.14
79236;BME280;69062;47.460;18.812;2024-03-02T05:23:56;99607.88;;;8.71;83.96
79236;BME280;69062;47.460;18.812;2024-03-02T05:25:59;99605.38;;;8.68;84.50
79236;BME280;69062;47.460;18.812;2024-03-02T05:28:02;99605.16;;;8.73;84.26
79236;BME280;69062;47.460;18.812;2024-03-02T05:30:05;99606.16;;;8.70;84.09
79236;BME280;69062;47.460;18.812;2024-03-02T05:32:09;99606.00;;;8.73;84.03
79236;BME280;69062;47.460;18.812;2024-03-02T05:34:11;99600.91;;;8.70;84.77
79236;BME280;69062;47.460;18.812;2024-03-02T05:36:14;99600.81;;;8.72;84.71
79236;BME280;69062;47.460;18.812;2024-03-02T05:38:19;99604.97;;;8.76;84.77
79236;BME280;69062;47.460;18.812;2024-03-02T05:40:22;99599.81;;;8.74;84.48
79236;BME280;69062;47.460;18.812;2024-03-02T05:42:27;99604.22;;;8.74;84.56
79236;BME280;69062;47.460;18.812;2024-03-02T05:44:30;99596.22;;;8.75;84.37
79236;BME280;69062;47.460;18.812;2024-03-02T05:46:33;99598.88;;;8.75;84.92
79236;BME280;69062;47.460;18.812;2024-03-02T05:48:36;99607.88;;;8.71;85.01
79236;BME280;69062;47.460;18.812;2024-03-02T05:50:39;99607.63;;;8.76;85.29
79236;BME280;69062;47.460;18.812;2024-03-02T05:52:42;99613.69;;;8.78;84.63
79236;BME280;69062;47.460;18.812;2024-03-02T05:54:44;99616.22;;;8.79;84.50
79236;BME280;69062;47.460;18.812;2024-03-02T05:56:47;99608.41;;;8.78;84.39
79236;BME280;69062;47.460;18.812;2024-03-02T05:58:50;99609.53;;;8.90;83.84
79236;BME280;69062;47.460;18.812;2024-03-02T06:01:15;99607.72;;;8.92;84.16
79236;BME280;69062;47.460;18.812;2024-03-02T06:03:20;99611.09;;;8.94;84.92
79236;BME280;69062;47.460;18.812;2024-03-02T06:05:24;99612.72;;;8.96;84.90
79236;BME280;69062;47.460;18.812;2024-03-02T06:07:27;99615.53;;;8.93;84.91
79236;BME280;69062;47.460;18.812;2024-03-02T06:09:30;99628.44;;;8.98;85.31
79236;BME280;69062;47.460;18.812;2024-03-02T06:11:36;99631.06;;;8.98;84.52
79236;BME280;69062;47.460;18.812;2024-03-02T06:13:39;99629.75;;;9.06;84.27
79236;BME280;69062;47.460;18.812;2024-03-02T06:15:42;99637.81;;;9.03;84.66
79236;BME280;69062;47.460;18.812;2024-03-02T06:17:45;99638.59;;;9.05;84.22
79236;BME280;69062;47.460;18.812;2024-03-02T06:19:48;99636.47;;;9.12;84.46
79236;BME280;69062;47.460;18.812;2024-03-02T06:21:50;99640.31;;;9.06;84.68
79236;BME280;69062;47.460;18.812;2024-03-02T06:23:54;99638.81;;;9.01;84.43
79236;BME280;69062;47.460;18.812;2024-03-02T06:25:56;99638.13;;;8.80;85.46
79236;BME280;69062;47.460;18.812;2024-03-02T06:27:59;99635.50;;;8.80;85.42
79236;BME280;69062;47.460;18.812;2024-03-02T06:30:05;99638.22;;;8.78;85.25
79236;BME280;69062;47.460;18.812;2024-03-02T06:32:08;99637.75;;;8.88;85.01
79236;BME280;69062;47.460;18.812;2024-03-02T06:34:10;99644.03;;;8.85;85.23
79236;BME280;69062;47.460;18.812;2024-03-02T06:36:13;99642.72;;;8.94;85.45
79236;BME280;69062;47.460;18.812;2024-03-02T06:38:19;99646.28;;;8.93;85.33
79236;BME280;69062;47.460;18.812;2024-03-02T06:40:22;99652.16;;;8.80;85.80
79236;BME280;69062;47.460;18.812;2024-03-02T06:42:25;99649.22;;;8.87;85.37
79236;BME280;69062;47.460;18.812;2024-03-02T06:44:28;99652.38;;;8.93;85.50
79236;BME280;69062;47.460;18.812;2024-03-02T06:46:30;99649.84;;;8.92;85.47
79236;BME280;69062;47.460;18.812;2024-03-02T06:48:33;99640.84;;;8.96;85.06
79236;BME280;69062;47.460;18.812;2024-03-02T06:50:36;99653.38;;;8.91;85.55
79236;BME280;69062;47.460;18.812;2024-03-02T06:52:40;99647.25;;;8.90;85.72
79236;BME280;69062;47.460;18.812;2024-03-02T06:54:43;99649.75;;;8.93;85.19
79236;BME280;69062;47.460;18.812;2024-03-02T06:56:45;99657.41;;;8.80;85.40
79236;BME280;69062;47.460;18.812;2024-03-02T06:58:49;99653.63;;;8.86;85.48
79236;BME280;69062;47.460;18.812;2024-03-02T07:00:52;99650.16;;;8.86;85.46
79236;BME280;69062;47.460;18.812;2024-03-02T07:02:55;99657.03;;;8.88;85.61
79236;BME280;69062;47.460;18.812;2024-03-02T07:04:58;99658.25;;;8.81;85.94
79236;BME280;69062;47.460;18.812;2024-03-02T07:07:01;99651.09;;;8.84;86.36
79236;BME280;69062;47.460;18.812;2024-03-02T07:09:03;99653.63;;;8.86;86.15
79236;BME280;69062;47.460;18.812;2024-03-02T07:11:06;99649.97;;;8.89;86.18
79236;BME280;69062;47.460;18.812;2024-03-02T07:13:11;99651.53;;;8.93;85.95
79236;BME280;69062;47.460;18.812;2024-03-02T07:15:15;99654.25;;;8.91;86.17
79236;BME280;69062;47.460;18.812;2024-03-02T07:17:32;99657.56;;;8.95;86.86
79236;BME280;69062;47.460;18.812;2024-03-02T07:19:35;99656.81;;;8.93;86.44
79236;BME280;69062;47.460;18.812;2024-03-02T07:21:38;99661.06;;;8.95;86.85
79236;BME280;69062;47.460;18.812;2024-03-02T07:23:41;99657.50;;;8.96;86.22
79236;BME280;69062;47.460;18.812;2024-03-02T07:25:44;99656.25;;;9.03;86.76
79236;BME280;69062;47.460;18.812;2024-03-02T07:27:50;99656.50;;;8.99;86.33
79236;BME280;69062;47.460;18.812;2024-03-02T07:29:53;99659.50;;;9.08;86.17
79236;BME280;69062;47.460;18.812;2024-03-02T07:31:56;99656.88;;;9.08;86.02
79236;BME280;69062;47.460;18.812;2024-03-02T07:33:59;99660.66;;;9.20;85.86
79236;BME280;69062;47.460;18.812;2024-03-02T07:36:02;99662.50;;;9.18;86.37
79236;BME280;69062;47.460;18.812;2024-03-02T07:38:06;99663.31;;;9.20;86.47
79236;BME280;69062;47.460;18.812;2024-03-02T07:40:11;99659.41;;;9.27;86.25
79236;BME280;69062;47.460;18.812;2024-03-02T07:42:14;99664.53;;;9.13;85.98
79236;BME280;69062;47.460;18.812;2024-03-02T07:44:19;99670.31;;;9.20;86.44
79236;BME280;69062;47.460;18.812;2024-03-02T07:46:22;99670.50;;;9.17;85.99
79236;BME280;69062;47.460;18.812;2024-03-02T07:48:25;99674.91;;;9.16;86.93
79236;BME280;69062;47.460;18.812;2024-03-02T07:50:28;99665.41;;;9.14;86.84
79236;BME280;69062;47.460;18.812;2024-03-02T07:52:31;99673.28;;;9.14;87.00
79236;BME280;69062;47.460;18.812;2024-03-02T07:54:34;99673.13;;;9.17;86.63
79236;BME280;69062;47.460;18.812;2024-03-02T07:56:37;99673.22;;;9.15;86.42
79236;BME280;69062;47.460;18.812;2024-03-02T07:58:59;99676.13;;;9.26;86.35
79236;BME280;69062;47.460;18.812;2024-03-02T08:01:03;99676.47;;;9.20;86.45
79236;BME280;69062;47.460;18.812;2024-03-02T08:03:07;99681.56;;;9.23;86.54
79236;BME280;69062;47.460;18.812;2024-03-02T08:05:09;99680.81;;;9.21;85.56
79236;BME280;69062;47.460;18.812;2024-03-02T08:07:12;99685.81;;;9.26;85.81
79236;BME280;69062;47.460;18.812;2024-03-02T08:09:15;99692.78;;;9.27;86.54
79236;BME280;69062;47.460;18.812;2024-03-02T08:11:18;99682.97;;;9.13;85.77
79236;BME280;69062;47.460;18.812;2024-03-02T08:13:21;99686.06;;;9.21;86.05
79236;BME280;69062;47.460;18.812;2024-03-02T08:15:24;99691.94;;;9.26;86.37
79236;BME280;69062;47.460;18.812;2024-03-02T08:17:28;99694.13;;;9.35;86.89
79236;BME280;69062;47.460;18.812;2024-03-02T08:19:31;99682.47;;;9.39;86.48
79236;BME280;69062;47.460;18.812;2024-03-02T08:21:34;99685.00;;;9.41;85.88
79236;BME280;69062;47.460;18.812;2024-03-02T08:23:38;99688.59;;;9.40;86.16
79236;BME280;69062;47.460;18.812;2024-03-02T08:25:43;99689.94;;;9.31;86.67
79236;BME280;69062;47.460;18.812;2024-03-02T08:27:46;99691.63;;;9.32;86.22
79236;BME280;69062;47.460;18.812;2024-03-02T08:29:48;99697.38;;;9.23;86.56
79236;BME280;69062;47.460;18.812;2024-03-02T08:31:51;99696.22;;;9.29;86.82
79236;BME280;69062;47.460;18.812;2024-03-02T08:33:54;99690.25;;;9.25;86.70
79236;BME280;69062;47.460;18.812;2024-03-02T08:35:57;99684.66;;;9.31;86.16
79236;BME280;69062;47.460;18.812;2024-03-02T08:38:00;99687.28;;;9.31;86.16
79236;BME280;69062;47.460;18.812;2024-03-02T08:40:03;99690.03;;;9.13;86.38
79236;BME280;69062;47.460;18.812;2024-03-02T08:42:08;99685.81;;;9.26;86.67
79236;BME280;69062;47.460;18.812;2024-03-02T08:44:12;99695.50;;;9.43;86.28
79236;BME280;69062;47.460;18.812;2024-03-02T08:46:15;99685.09;;;9.39;86.31
79236;BME280;69062;47.460;18.812;2024-03-02T08:48:18;99696.91;;;9.32;86.10
79236;BME280;69062;47.460;18.812;2024-03-02T08:50:20;99690.16;;;9.44;85.99
79236;BME280;69062;47.460;18.812;2024-03-02T08:52:23;99686.75;;;9.42;87.15
79236;BME280;69062;47.460;18.812;2024-03-02T08:54:27;99689.44;;;9.40;86.90
79236;BME280;69062;47.460;18.812;2024-03-02T08:56:31;99692.06;;;9.40;87.01
79236;BME280;69062;47.460;18.812;2024-03-02T08:58:34;99689.56;;;9.55;86.35
79236;BME280;69062;47.460;18.812;2024-03-02T09:00:37;99690.28;;;9.58;86.66
79236;BME280;69062;47.460;18.812;2024-03-02T09:02:40;99691.53;;;9.51;86.15
79236;BME280;69062;47.460;18.812;2024-03-02T09:04:43;99695.94;;;9.51;86.70
79236;BME280;69062;47.460;18.812;2024-03-02T09:06:49;99689.97;;;9.47;86.61
79236;BME280;69062;47.460;18.812;2024-03-02T09:08:52;99694.25;;;9.50;86.05
79236;BME280;69062;47.460;18.812;2024-03-02T09:10:56;99692.72;;;9.61;85.59
79236;BME280;69062;47.460;18.812;2024-03-02T09:12:59;99691.97;;;9.59;85.55
79236;BME280;69062;47.460;18.812;2024-03-02T09:15:02;99690.19;;;9.60;86.06
79236;BME280;69062;47.460;18.812;2024-03-02T09:17:05;99694.69;;;9.58;85.90
79236;BME280;69062;47.460;18.812;2024-03-02T09:19:08;99694.41;;;9.47;87.17
79236;BME280;69062;47.460;18.812;2024-03-02T09:21:12;99698.50;;;9.52;86.78
79236;BME280;69062;47.460;18.812;2024-03-02T09:23:15;99698.81;;;9.46;87.09
79236;BME280;69062;47.460;18.812;2024-03-02T09:25:17;99696.88;;;9.50;86.43
79236;BME280;69062;47.460;18.812;2024-03-02T09:27:20;99690.34;;;9.57;86.22
79236;BME280;69062;47.460;18.812;2024-03-02T09:29:23;99699.13;;;9.57;86.33
79236;BME280;69062;47.460;18.812;2024-03-02T09:31:26;99698.50;;;9.52;86.86
79236;BME280;69062;47.460;18.812;2024-03-02T09:33:29;99701.50;;;9.62;86.83
79236;BME280;69062;47.460;18.812;2024-03-02T09:35:32;99697.78;;;9.66;86.73
79236;BME280;69062;47.460;18.812;2024-03-02T09:37:35;99701.44;;;9.63;85.65
79236;BME280;69062;47.460;18.812;2024-03-02T09:39:38;99706.00;;;9.60;85.11
79236;BME280;69062;47.460;18.812;2024-03-02T09:41:41;99707.63;;;9.62;85.07
79236;BME280;69062;47.460;18.812;2024-03-02T09:43:44;99701.75;;;9.57;85.97
79236;BME280;69062;47.460;18.812;2024-03-02T09:45:47;99705.91;;;9.61;86.02
79236;BME280;69062;47.460;18.812;2024-03-02T09:47:51;99706.75;;;9.62;85.84
79236;BME280;69062;47.460;18.812;2024-03-02T09:49:54;99709.22;;;9.49;84.77
79236;BME280;69062;47.460;18.812;2024-03-02T09:51:58;99696.53;;;9.56;85.72
79236;BME280;69062;47.460;18.812;2024-03-02T09:54:01;99705.66;;;9.50;86.19
79236;BME280;69062;47.460;18.812;2024-03-02T09:56:21;99700.91;;;9.57;86.23
79236;BME280;69062;47.460;18.812;2024-03-02T09:58:24;99693.91;;;9.56;86.50
79236;BME280;69062;47.460;18.812;2024-03-02T10:00:26;99708.63;;;9.60;86.05
79236;BME280;69062;47.460;18.812;2024-03-02T10:02:29;99707.78;;;9.59;85.88
79236;BME280;69062;47.460;18.812;2024-03-02T10:04:33;99700.06;;;9.56;85.12
79236;BME280;69062;47.460;18.812;2024-03-02T10:06:38;99704.78;;;9.50;85.72
79236;BME280;69062;47.460;18.812;2024-03-02T10:08:44;99699.84;;;9.44;85.25
79236;BME280;69062;47.460;18.812;2024-03-02T10:10:47;99699.56;;;9.48;85.22
79236;BME280;69062;47.460;18.812;2024-03-02T10:13:03;99701.97;;;9.53;85.27
79236;BME280;69062;47.460;18.812;2024-03-02T10:15:07;99698.50;;;9.52;85.63
79236;BME280;69062;47.460;18.812;2024-03-02T10:17:13;99697.13;;;9.45;85.45
79236;BME280;69062;47.460;18.812;2024-03-02T10:19:21;99688.53;;;9.42;85.47
79236;BME280;69062;47.460;18.812;2024-03-02T10:21:24;99699.66;;;9.47;86.19
79236;BME280;69062;47.460;18.812;2024-03-02T10:23:28;99695.88;;;9.52;86.04
79236;BME280;69062;47.460;18.812;2024-03-02T10:25:32;99699.16;;;9.56;85.79
79236;BME280;69062;47.460;18.812;2024-03-02T10:27:52;99696.16;;;9.63;85.57
79236;BME280;69062;47.460;18.812;2024-03-02T10:29:56;99699.16;;;9.56;86.04
79236;BME280;69062;47.460;18.812;2024-03-02T10:32:02;99701.75;;;9.57;85.29
79236;BME280;69062;47.460;18.812;2024-03-02T10:34:05;99696.06;;;9.65;84.79
79236;BME280;69062;47.460;18.812;2024-03-02T10:36:09;99692.59;;;9.64;86.33
79236;BME280;69062;47.460;18.812;2024-03-02T10:38:12;99696.66;;;9.70;84.92
79236;BME280;69062;47.460;18.812;2024-03-02T10:40:15;99691.75;;;9.64;85.71
79236;BME280;69062;47.460;18.812;2024-03-02T10:42:19;99692.09;;;9.74;85.77
79236;BME280;69062;47.460;18.812;2024-03-02T10:44:22;99691.91;;;9.77;86.16
79236;BME280;69062;47.460;18.812;2024-03-02T10:46:30;99685.19;;;9.71;85.27
79236;BME280;69062;47.460;18.812;2024-03-02T10:48:35;99694.03;;;9.70;84.93
79236;BME280;69062;47.460;18.812;2024-03-02T10:50:39;99683.56;;;9.68;84.85
79236;BME280;69062;47.460;18.812;2024-03-02T10:52:42;99687.91;;;9.70;85.03
79236;BME280;69062;47.460;18.812;2024-03-02T10:54:45;99689.16;;;9.62;85.31